sensor_id;sensor_type;location;lat;lon;timestamp;pressure;altitude;pressure_sealevel;temperature;humidity
59104;BME280;51449;51.676;5.812;2023-02-17T00:01:41;101894.09;;;11.03;91.03
59104;BME280;51449;51.676;5.812;2023-02-17T00:04:03;101900.41;;;11.03;90.81
59104;BME280;51449;51.676;5.812;2023-02-17T00:06:27;101907.75;;;11.08;90.62
59104;BME280;51449;51.676;5.812;2023-02-17T00:08:50;101904.19;;;11.07;90.47
59104;BME280;51449;51.676;5.812;2023-02-17T00:11:13;101906.94;;;11.07;90.71
59104;BME280;51449;51.676;5.812;2023-02-17T00:13:34;101896.72;;;11.08;90.28
59104;BME280;51449;51.676;5.812;2023-02-17T00:15:56;101892.53;;;11.10;90.39
59104;BME280;51449;51.676;5.812;2023-02-17T00:18:18;101882.31;;;11.11;90.11
59104;BME280;51449;51.676;5.812;2023-02-17T00:20:40;101881.19;;;11.12;89.78
59104;BME280;51449;51.676;5.812;2023-02-17T00:23:02;101893.03;;;11.12;90.04
59104;BME280;51449;51.676;5.812;2023-02-17T00:25:24;101883.44;;;11.10;89.78
59104;BME280;51449;51.676;5.812;2023-02-17T00:27:45;101889.78;;;11.10;90.07
59104;BME280;51449;51.676;5.812;2023-02-17T00:30:07;101886.19;;;11.10;90.37
59104;BME280;51449;51.676;5.812;2023-02-17T00:32:29;101881.66;;;11.14;90.09
59104;BME280;51449;51.676;5.812;2023-02-17T00:34:51;101881.06;;;11.17;89.64
59104;BME280;51449;51.676;5.812;2023-02-17T00:37:13;101876.38;;;11.18;89.43
59104;BME280;51449;51.676;5.812;2023-02-17T00:39:35;101870.50;;;11.19;89.34
59104;BME280;51449;51.676;5.812;2023-02-17T00:41:57;101865.00;;;11.19;89.13
59104;BME280;51449;51.676;5.812;2023-02-17T00:44:23;101873.59;;;11.18;88.72
59104;BME280;51449;51.676;5.812;2023-02-17T00:46:46;101858.50;;;11.15;88.79
59104;BME280;51449;51.676;5.812;2023-02-17T00:49:14;101865.31;;;11.18;88.70
59104;BME280;51449;51.676;5.812;2023-02-17T00:51:37;101866.94;;;11.19;88.64
59104;BME280;51449;51.676;5.812;2023-02-17T00:53:59;101868.59;;;11.20;88.40
59104;BME280;51449;51.676;5.812;2023-02-17T00:56:20;101866.00;;;11.23;87.96
59104;BME280;51449;51.676;5.812;2023-02-17T00:58:43;101865.72;;;11.25;87.81
59104;BME280;51449;51.676;5.812;2023-02-17T01:01:10;101861.81;;;11.26;87.77
59104;BME280;51449;51.676;5.812;2023-02-17T01:03:36;101868.47;;;11.25;87.34
59104;BME280;51449;51.676;5.812;2023-02-17T01:05:58;101865.72;;;11.25;87.40
59104;BME280;51449;51.676;5.812;2023-02-17T01:08:25;101870.59;;;11.28;87.28
59104;BME280;51449;51.676;5.812;2023-02-17T01:10:48;101865.28;;;11.31;87.07
59104;BME280;51449;51.676;5.812;2023-02-17T01:13:12;101861.38;;;11.32;86.90
59104;BME280;51449;51.676;5.812;2023-02-17T01:15:41;101858.63;;;11.32;86.91
59104;BME280;51449;51.676;5.812;2023-02-17T01:18:06;101858.63;;;11.32;86.91
59104;BME280;51449;51.676;5.812;2023-02-17T01:20:28;101858.31;;;11.34;86.82
59104;BME280;51449;51.676;5.812;2023-02-17T01:22:50;101850.84;;;11.34;86.96
59104;BME280;51449;51.676;5.812;2023-02-17T01:25:12;101851.16;;;11.33;86.60
59104;BME280;51449;51.676;5.812;2023-02-17T01:27:34;101854.41;;;11.35;86.40
59104;BME280;51449;51.676;5.812;2023-02-17T01:29:56;101847.88;;;11.31;86.59
59104;BME280;51449;51.676;5.812;2023-02-17T01:32:20;101851.16;;;11.33;86.70
59104;BME280;51449;51.676;5.812;2023-02-17T01:34:42;101844.03;;;11.32;86.81
59104;BME280;51449;51.676;5.812;2023-02-17T01:37:03;101846.16;;;11.35;86.17
59104;BME280;51449;51.676;5.812;2023-02-17T01:39:29;101842.56;;;11.34;86.08
59104;BME280;51449;51.676;5.812;2023-02-17T01:41:50;101843.38;;;11.35;86.25
59104;BME280;51449;51.676;5.812;2023-02-17T01:44:19;101843.88;;;11.37;86.00
59104;BME280;51449;51.676;5.812;2023-02-17T01:46:45;101841.13;;;11.37;85.97
59104;BME280;51449;51.676;5.812;2023-02-17T01:51:56;101844.69;;;11.38;85.53
59104;BME280;51449;51.676;5.812;2023-02-17T01:54:29;101844.69;;;11.38;85.55
59104;BME280;51449;51.676;5.812;2023-02-17T01:56:57;101847.75;;;11.36;85.61
59104;BME280;51449;51.676;5.812;2023-02-17T01:59:23;101845.00;;;11.36;85.51
59104;BME280;51449;51.676;5.812;2023-02-17T02:01:46;101845.00;;;11.36;84.96
59104;BME280;51449;51.676;5.812;2023-02-17T02:04:13;101856.53;;;11.38;85.13
59104;BME280;51449;51.676;5.812;2023-02-17T02:06:39;101855.75;;;11.38;84.81
59104;BME280;51449;51.676;5.812;2023-02-17T02:09:08;101857.34;;;11.39;84.80
59104;BME280;51449;51.676;5.812;2023-02-17T02:11:34;101844.41;;;11.39;84.57
59104;BME280;51449;51.676;5.812;2023-02-17T02:13:58;101840.50;;;11.40;84.56
59104;BME280;51449;51.676;5.812;2023-02-17T02:16:28;101847.16;;;11.39;84.46
59104;BME280;51449;51.676;5.812;2023-02-17T02:19:19;101837.75;;;11.40;84.31
59104;BME280;51449;51.676;5.812;2023-02-17T02:25:10;101834.97;;;11.40;83.90
59104;BME280;51449;51.676;5.812;2023-02-17T02:33:50;101818.84;;;11.33;83.60
59104;BME280;51449;51.676;5.812;2023-02-17T02:36:24;101813.03;;;11.35;83.76
59104;BME280;51449;51.676;5.812;2023-02-17T02:39:02;101797.63;;;11.34;83.57
59104;BME280;51449;51.676;5.812;2023-02-17T02:41:40;101799.25;;;11.35;83.79
59104;BME280;51449;51.676;5.812;2023-02-17T02:44:09;101796.63;;;11.30;83.64
59104;BME280;51449;51.676;5.812;2023-02-17T02:46:35;101789.44;;;11.29;83.26
59104;BME280;51449;51.676;5.812;2023-02-17T02:48:57;101785.88;;;11.28;83.06
59104;BME280;51449;51.676;5.812;2023-02-17T02:51:48;101791.09;;;11.30;83.00
59104;BME280;51449;51.676;5.812;2023-02-17T03:00:08;101765.91;;;11.23;82.69
59104;BME280;51449;51.676;5.812;2023-02-17T03:05:48;101761.69;;;11.25;82.66
59104;BME280;51449;51.676;5.812;2023-02-17T03:08:27;101751.78;;;11.24;82.48
59104;BME280;51449;51.676;5.812;2023-02-17T03:11:02;101759.22;;;11.24;82.53
59104;BME280;51449;51.676;5.812;2023-02-17T03:13:32;101768.16;;;11.21;82.34
59104;BME280;51449;51.676;5.812;2023-02-17T03:15:58;101776.94;;;11.23;82.39
59104;BME280;51449;51.676;5.812;2023-02-17T03:18:20;101773.66;;;11.21;82.27
59104;BME280;51449;51.676;5.812;2023-02-17T03:20:52;101771.41;;;11.23;82.26
59104;BME280;51449;51.676;5.812;2023-02-17T03:23:22;101775.13;;;11.18;81.99
59104;BME280;51449;51.676;5.812;2023-02-17T03:25:44;101779.81;;;11.18;81.91
59104;BME280;51449;51.676;5.812;2023-02-17T03:28:06;101768.28;;;11.16;82.25
59104;BME280;51449;51.676;5.812;2023-02-17T03:30:28;101766.34;;;11.16;82.12
59104;BME280;51449;51.676;5.812;2023-02-17T03:32:50;101767.66;;;11.19;81.91
59104;BME280;51449;51.676;5.812;2023-02-17T03:35:12;101770.91;;;11.21;82.08
59104;BME280;51449;51.676;5.812;2023-02-17T03:37:34;101763.44;;;11.21;81.69
59104;BME280;51449;51.676;5.812;2023-02-17T03:39:55;101779.00;;;11.17;81.36
59104;BME280;51449;51.676;5.812;2023-02-17T03:42:17;101778.00;;;11.13;81.59
59104;BME280;51449;51.676;5.812;2023-02-17T03:44:39;101775.75;;;11.15;81.75
59104;BME280;51449;51.676;5.812;2023-02-17T03:47:00;101771.53;;;11.18;81.49
59104;BME280;51449;51.676;5.812;2023-02-17T03:49:22;101775.91;;;11.19;81.54
59104;BME280;51449;51.676;5.812;2023-02-17T03:51:44;101765.69;;;11.19;81.23
59104;BME280;51449;51.676;5.812;2023-02-17T03:54:06;101760.50;;;11.18;81.20
59104;BME280;51449;51.676;5.812;2023-02-17T03:56:30;101762.63;;;11.21;81.07
59104;BME280;51449;51.676;5.812;2023-02-17T03:58:52;101759.56;;;11.22;81.13
59104;BME280;51449;51.676;5.812;2023-02-17T04:01:14;101759.88;;;11.21;80.91
59104;BME280;51449;51.676;5.812;2023-02-17T04:03:36;101751.91;;;11.19;81.18
59104;BME280;51449;51.676;5.812;2023-02-17T04:05:58;101757.41;;;11.19;81.18
59104;BME280;51449;51.676;5.812;2023-02-17T04:08:20;101757.13;;;11.21;80.98
59104;BME280;51449;51.676;5.812;2023-02-17T04:10:42;101761.53;;;11.22;80.97
59104;BME280;51449;51.676;5.812;2023-02-17T04:13:05;101767.03;;;11.22;81.08
59104;BME280;51449;51.676;5.812;2023-02-17T04:15:27;101763.44;;;11.21;80.98
59104;BME280;51449;51.676;5.812;2023-02-17T04:17:50;101753.25;;;11.22;80.82
59104;BME280;51449;51.676;5.812;2023-02-17T04:20:12;101762.63;;;11.21;81.22
59104;BME280;51449;51.676;5.812;2023-02-17T04:22:34;101752.25;;;11.18;81.20
59104;BME280;51449;51.676;5.812;2023-02-17T04:24:56;101750.28;;;11.18;81.46
59104;BME280;51449;51.676;5.812;2023-02-17T04:27:17;101737.31;;;11.19;81.53
59104;BME280;51449;51.676;5.812;2023-02-17T04:29:39;101741.19;;;11.18;81.60
59104;BME280;51449;51.676;5.812;2023-02-17T04:32:00;101740.06;;;11.19;81.57
59104;BME280;51449;51.676;5.812;2023-02-17T04:34:23;101749.16;;;11.19;81.21
59104;BME280;51449;51.676;5.812;2023-02-17T04:36:45;101759.38;;;11.19;81.49
59104;BME280;51449;51.676;5.812;2023-02-17T04:39:07;101760.50;;;11.18;81.37
59104;BME280;51449;51.676;5.812;2023-02-17T04:41:28;101758.88;;;11.17;81.69
59104;BME280;51449;51.676;5.812;2023-02-17T04:43:50;101761.44;;;11.13;81.47
59104;BME280;51449;51.676;5.812;2023-02-17T04:46:11;101760.31;;;11.14;81.91
59104;BME280;51449;51.676;5.812;2023-02-17T04:48:33;101750.41;;;11.13;81.55
59104;BME280;51449;51.676;5.812;2023-02-17T04:50:55;101756.75;;;11.13;81.58
59104;BME280;51449;51.676;5.812;2023-02-17T04:53:17;101745.72;;;11.13;81.78
59104;BME280;51449;51.676;5.812;2023-02-17T04:55:40;101738.25;;;11.14;81.88
59104;BME280;51449;51.676;5.812;2023-02-17T04:58:03;101739.09;;;11.14;81.81
59104;BME280;51449;51.676;5.812;2023-02-17T05:00:24;101746.22;;;11.16;81.90
59104;BME280;51449;51.676;5.812;2023-02-17T05:02:46;101734.69;;;11.13;81.85
59104;BME280;51449;51.676;5.812;2023-02-17T05:05:08;101739.09;;;11.14;81.73
59104;BME280;51449;51.676;5.812;2023-02-17T05:07:30;101735.50;;;11.14;82.05
59104;BME280;51449;51.676;5.812;2023-02-17T05:09:52;101742.94;;;11.13;82.15
59104;BME280;51449;51.676;5.812;2023-02-17T05:12:14;101718.63;;;11.16;81.88
59104;BME280;51449;51.676;5.812;2023-02-17T05:14:36;101718.00;;;11.19;81.91
59104;BME280;51449;51.676;5.812;2023-02-17T05:16:59;101737.31;;;11.19;82.06
59104;BME280;51449;51.676;5.812;2023-02-17T05:19:21;101734.88;;;11.17;81.77
59104;BME280;51449;51.676;5.812;2023-02-17T05:21:42;101733.09;;;11.21;81.80
59104;BME280;51449;51.676;5.812;2023-02-17T05:24:05;101740.56;;;11.21;81.77
59104;BME280;51449;51.676;5.812;2023-02-17T05:26:27;101735.03;;;11.21;82.10
59104;BME280;51449;51.676;5.812;2023-02-17T05:28:49;101727.59;;;11.21;81.94
59104;BME280;51449;51.676;5.812;2023-02-17T05:31:10;101736.00;;;11.16;82.64
59104;BME280;51449;51.676;5.812;2023-02-17T05:33:33;101745.06;;;11.17;82.71
59104;BME280;51449;51.676;5.812;2023-02-17T05:35:55;101745.56;;;11.19;82.66
59104;BME280;51449;51.676;5.812;2023-02-17T05:38:17;101736.31;;;11.14;82.83
59104;BME280;51449;51.676;5.812;2023-02-17T05:40:38;101733.06;;;11.12;83.03
59104;BME280;51449;51.676;5.812;2023-02-17T05:43:00;101740.53;;;11.12;83.38
59104;BME280;51449;51.676;5.812;2023-02-17T05:45:22;101741.34;;;11.12;83.22
59104;BME280;51449;51.676;5.812;2023-02-17T05:47:44;101740.84;;;11.10;83.39
59104;BME280;51449;51.676;5.812;2023-02-17T05:50:06;101737.56;;;11.08;83.37
59104;BME280;51449;51.676;5.812;2023-02-17T05:52:28;101747.97;;;11.11;83.14
59104;BME280;51449;51.676;5.812;2023-02-17T05:54:50;101748.28;;;11.10;83.42
59104;BME280;51449;51.676;5.812;2023-02-17T05:57:12;101746.97;;;11.07;83.84
59104;BME280;51449;51.676;5.812;2023-02-17T05:59:33;101750.22;;;11.09;83.64
59104;BME280;51449;51.676;5.812;2023-02-17T06:01:55;101743.91;;;11.09;83.71
59104;BME280;51449;51.676;5.812;2023-02-17T06:04:17;101746.97;;;11.07;84.21
59104;BME280;51449;51.676;5.812;2023-02-17T06:06:39;101725.53;;;11.04;84.21
59104;BME280;51449;51.676;5.812;2023-02-17T06:09:00;101728.94;;;11.01;84.52
59104;BME280;51449;51.676;5.812;2023-02-17T06:11:22;101732.31;;;10.98;84.62
59104;BME280;51449;51.676;5.812;2023-02-17T06:13:44;101731.50;;;10.98;84.52
59104;BME280;51449;51.676;5.812;2023-02-17T06:16:06;101710.56;;;10.97;85.12
59104;BME280;51449;51.676;5.812;2023-02-17T06:18:28;101718.84;;;10.97;85.49
59104;BME280;51449;51.676;5.812;2023-02-17T06:20:49;101737.84;;;10.98;85.31
59104;BME280;51449;51.676;5.812;2023-02-17T06:23:11;101736.19;;;10.97;85.46
59104;BME280;51449;51.676;5.812;2023-02-17T06:25:33;101736.19;;;10.97;85.62
59104;BME280;51449;51.676;5.812;2023-02-17T06:27:55;101736.19;;;10.97;85.87
59104;BME280;51449;51.676;5.812;2023-02-17T06:30:16;101735.72;;;10.95;85.89
59104;BME280;51449;51.676;5.812;2023-02-17T06:32:38;101727.44;;;10.95;85.93
59104;BME280;51449;51.676;5.812;2023-02-17T06:35:00;101730.19;;;10.95;86.06
59104;BME280;51449;51.676;5.812;2023-02-17T06:37:21;101724.69;;;10.95;86.11
59104;BME280;51449;51.676;5.812;2023-02-17T06:39:43;101727.44;;;10.95;86.13
59104;BME280;51449;51.676;5.812;2023-02-17T06:42:05;101723.84;;;10.95;86.27
59104;BME280;51449;51.676;5.812;2023-02-17T06:44:26;101735.38;;;10.97;86.43
59104;BME280;51449;51.676;5.812;2023-02-17T06:46:48;101731.19;;;10.99;86.11
59104;BME280;51449;51.676;5.812;2023-02-17T06:49:10;101730.66;;;10.97;86.25
59104;BME280;51449;51.676;5.812;2023-02-17T06:51:32;101728.75;;;10.98;86.44
59104;BME280;51449;51.676;5.812;2023-02-17T06:53:54;101736.38;;;11.01;86.58
59104;BME280;51449;51.676;5.812;2023-02-17T06:56:17;101732.19;;;11.03;86.03
59104;BME280;51449;51.676;5.812;2023-02-17T06:58:41;101730.25;;;11.04;86.48
59104;BME280;51449;51.676;5.812;2023-02-17T07:01:03;101723.91;;;11.03;86.26
59104;BME280;51449;51.676;5.812;2023-02-17T07:03:25;101732.69;;;11.05;86.47
59104;BME280;51449;51.676;5.812;2023-02-17T07:05:47;101742.59;;;11.06;86.72
59104;BME280;51449;51.676;5.812;2023-02-17T07:08:08;101736.75;;;11.08;86.59
59104;BME280;51449;51.676;5.812;2023-02-17T07:10:32;101735.00;;;11.12;86.27
59104;BME280;51449;51.676;5.812;2023-02-17T07:12:54;101734.69;;;11.13;86.09
59104;BME280;51449;51.676;5.812;2023-02-17T07:15:16;101735.50;;;11.14;86.40
59104;BME280;51449;51.676;5.812;2023-02-17T07:17:37;101740.19;;;11.13;85.95
59104;BME280;51449;51.676;5.812;2023-02-17T07:19:59;101735.19;;;11.16;85.95
59104;BME280;51449;51.676;5.812;2023-02-17T07:22:21;101727.41;;;11.18;85.91
59104;BME280;51449;51.676;5.812;2023-02-17T07:24:45;101733.44;;;11.20;85.93
59104;BME280;51449;51.676;5.812;2023-02-17T07:27:07;101729.53;;;11.21;85.77
59104;BME280;51449;51.676;5.812;2023-02-17T07:29:31;101729.53;;;11.21;85.84
59104;BME280;51449;51.676;5.812;2023-02-17T07:31:52;101721.25;;;11.21;86.04
59104;BME280;51449;51.676;5.812;2023-02-17T07:34:14;101727.78;;;11.25;85.48
59104;BME280;51449;51.676;5.812;2023-02-17T07:36:36;101724.81;;;11.21;85.74
59104;BME280;51449;51.676;5.812;2023-02-17T07:38:57;101716.75;;;11.25;85.22
59104;BME280;51449;51.676;5.812;2023-02-17T07:41:21;101719.38;;;11.30;85.59
59104;BME280;51449;51.676;5.812;2023-02-17T07:43:59;101717.91;;;11.32;85.48
59104;BME280;51449;51.676;5.812;2023-02-17T07:46:21;101711.91;;;11.30;85.28
59104;BME280;51449;51.676;5.812;2023-02-17T07:48:44;101709.44;;;11.29;85.43
59104;BME280;51449;51.676;5.812;2023-02-17T07:51:09;101704.75;;;11.29;85.37
59104;BME280;51449;51.676;5.812;2023-02-17T07:53:32;101706.56;;;11.34;85.29
59104;BME280;51449;51.676;5.812;2023-02-17T07:55:55;101707.53;;;11.38;85.02
59104;BME280;51449;51.676;5.812;2023-02-17T07:58:16;101697.81;;;11.41;85.06
59104;BME280;51449;51.676;5.812;2023-02-17T08:00:38;101690.84;;;11.43;85.08
59104;BME280;51449;51.676;5.812;2023-02-17T08:03:00;101699.97;;;11.44;84.67
59104;BME280;51449;51.676;5.812;2023-02-17T08:05:22;101693.00;;;11.46;84.56
59104;BME280;51449;51.676;5.812;2023-02-17T08:07:43;101682.13;;;11.50;84.35
59104;BME280;51449;51.676;5.812;2023-02-17T08:10:06;101699.34;;;11.55;84.03
59104;BME280;51449;51.676;5.812;2023-02-17T08:12:46;101694.31;;;11.57;84.24
59104;BME280;51449;51.676;5.812;2023-02-17T08:15:26;101707.97;;;11.63;84.11
59104;BME280;51449;51.676;5.812;2023-02-17T08:17:48;101710.41;;;11.64;84.10
59104;BME280;51449;51.676;5.812;2023-02-17T08:20:11;101697.63;;;11.68;84.21
59104;BME280;51449;51.676;5.812;2023-02-17T08:22:35;101708.66;;;11.68;83.65
59104;BME280;51449;51.676;5.812;2023-02-17T08:24:58;101697.28;;;11.70;83.78
59104;BME280;51449;51.676;5.812;2023-02-17T08:27:20;101699.72;;;11.71;83.82
59104;BME280;51449;51.676;5.812;2023-02-17T08:29:42;101705.41;;;11.75;83.58
59104;BME280;51449;51.676;5.812;2023-02-17T08:32:04;101710.31;;;11.78;83.22
59104;BME280;51449;51.676;5.812;2023-02-17T08:34:26;101720.41;;;11.83;83.46
59104;BME280;51449;51.676;5.812;2023-02-17T08:36:48;101722.22;;;11.87;83.19
59104;BME280;51449;51.676;5.812;2023-02-17T08:39:12;101722.72;;;11.89;82.75
59104;BME280;51449;51.676;5.812;2023-02-17T08:41:37;101734.25;;;11.91;83.20
59104;BME280;51449;51.676;5.812;2023-02-17T08:44:02;101722.56;;;11.94;82.94
59104;BME280;51449;51.676;5.812;2023-02-17T08:46:28;101723.56;;;11.98;82.95
59104;BME280;51449;51.676;5.812;2023-02-17T08:48:51;101732.81;;;12.03;82.79
59104;BME280;51449;51.676;5.812;2023-02-17T08:51:19;101720.81;;;12.07;82.55
59104;BME280;51449;51.676;5.812;2023-02-17T08:53:44;101739.50;;;12.10;82.63
59104;BME280;51449;51.676;5.812;2023-02-17T08:56:07;101741.31;;;12.15;82.25
59104;BME280;51449;51.676;5.812;2023-02-17T08:58:29;101733.97;;;12.19;82.19
59104;BME280;51449;51.676;5.812;2023-02-17T09:00:51;101743.91;;;12.20;82.05
59104;BME280;51449;51.676;5.812;2023-02-17T09:03:13;101747.47;;;12.20;81.53
59104;BME280;51449;51.676;5.812;2023-02-17T09:05:35;101747.97;;;12.23;81.70
59104;BME280;51449;51.676;5.812;2023-02-17T09:07:56;101754.00;;;12.25;81.81
59104;BME280;51449;51.676;5.812;2023-02-17T09:10:18;101744.56;;;12.26;81.39
59104;BME280;51449;51.676;5.812;2023-02-17T09:12:40;101753.50;;;12.23;81.09
59104;BME280;51449;51.676;5.812;2023-02-17T09:15:02;101763.09;;;12.25;81.28
59104;BME280;51449;51.676;5.812;2023-02-17T09:17:24;101761.47;;;12.24;81.46
59104;BME280;51449;51.676;5.812;2023-02-17T09:19:45;101776.59;;;12.27;80.79
59104;BME280;51449;51.676;5.812;2023-02-17T09:22:08;101763.91;;;12.26;81.48
59104;BME280;51449;51.676;5.812;2023-02-17T09:24:37;101776.59;;;12.27;81.05
59104;BME280;51449;51.676;5.812;2023-02-17T09:27:00;101780.03;;;12.32;81.22
59104;BME280;51449;51.676;5.812;2023-02-17T09:29:22;101780.50;;;12.34;80.67
59104;BME280;51449;51.676;5.812;2023-02-17T09:31:44;101783.44;;;12.38;81.03
59104;BME280;51449;51.676;5.812;2023-02-17T09:34:06;101789.47;;;12.40;80.85
59104;BME280;51449;51.676;5.812;2023-02-17T09:36:30;101787.19;;;12.42;80.96
59104;BME280;51449;51.676;5.812;2023-02-17T09:38:54;101789.31;;;12.45;80.55
59104;BME280;51449;51.676;5.812;2023-02-17T09:41:21;101779.53;;;12.48;80.20
59104;BME280;51449;51.676;5.812;2023-02-17T09:43:47;101781.66;;;12.51;79.89
59104;BME280;51449;51.676;5.812;2023-02-17T09:46:26;101780.19;;;12.53;79.81
59104;BME280;51449;51.676;5.812;2023-02-17T09:48:50;101792.41;;;12.52;79.47
59104;BME280;51449;51.676;5.812;2023-02-17T09:51:35;101792.59;;;12.56;79.62
59104;BME280;51449;51.676;5.812;2023-02-17T09:54:11;101790.78;;;12.60;79.31
59104;BME280;51449;51.676;5.812;2023-02-17T09:56:40;101796.16;;;12.56;78.72
59104;BME280;51449;51.676;5.812;2023-02-17T10:01:57;101795.81;;;12.58;78.83
59104;BME280;51449;51.676;5.812;2023-02-17T10:04:27;101796.31;;;12.60;78.30
59104;BME280;51449;51.676;5.812;2023-02-17T10:07:01;101790.97;;;12.63;78.20
59104;BME280;51449;51.676;5.812;2023-02-17T10:09:34;101788.84;;;12.69;78.25
59104;BME280;51449;51.676;5.812;2023-02-17T10:12:08;101779.25;;;12.75;78.03
59104;BME280;51449;51.676;5.812;2023-02-17T10:14:42;101776.66;;;12.79;77.31
59104;BME280;51449;51.676;5.812;2023-02-17T10:20:23;101776.13;;;12.94;76.97
59104;BME280;51449;51.676;5.812;2023-02-17T10:22:56;101778.75;;;12.99;76.25
59104;BME280;51449;51.676;5.812;2023-02-17T10:25:54;101774.03;;;13.00;75.78
59104;BME280;51449;51.676;5.812;2023-02-17T10:28:48;101780.88;;;13.02;75.67
59104;BME280;51449;51.676;5.812;2023-02-17T10:37:00;101763.59;;;13.14;74.80
59104;BME280;51449;51.676;5.812;2023-02-17T10:39:33;101776.63;;;13.14;73.82
59104;BME280;51449;51.676;5.812;2023-02-17T10:42:20;101784.75;;;13.19;74.51
59104;BME280;51449;51.676;5.812;2023-02-17T10:44:47;101784.25;;;13.25;74.36
59104;BME280;51449;51.676;5.812;2023-02-17T10:47:11;101794.19;;;13.26;73.84
59104;BME280;51449;51.676;5.812;2023-02-17T10:49:38;101789.78;;;13.25;73.69
59104;BME280;51449;51.676;5.812;2023-02-17T10:52:15;101797.94;;;13.22;72.98
59104;BME280;51449;51.676;5.812;2023-02-17T10:54:44;101800.22;;;13.20;73.20
59104;BME280;51449;51.676;5.812;2023-02-17T10:57:13;101806.25;;;13.22;73.42
59104;BME280;51449;51.676;5.812;2023-02-17T10:59:44;101814.06;;;13.20;73.54
59104;BME280;51449;51.676;5.812;2023-02-17T11:02:19;101807.22;;;13.17;73.37
59104;BME280;51449;51.676;5.812;2023-02-17T11:04:49;101800.03;;;13.16;73.73
59104;BME280;51449;51.676;5.812;2023-02-17T11:07:15;101789.31;;;13.15;73.73
59104;BME280;51449;51.676;5.812;2023-02-17T11:09:45;101782.81;;;13.19;73.58
59104;BME280;51449;51.676;5.812;2023-02-17T11:12:17;101793.03;;;13.19;73.90
59104;BME280;51449;51.676;5.812;2023-02-17T11:14:48;101794.50;;;13.16;74.04
59104;BME280;51449;51.676;5.812;2023-02-17T11:17:25;101801.84;;;13.12;73.97
59104;BME280;51449;51.676;5.812;2023-02-17T11:20:00;101800.03;;;13.16;74.24
59104;BME280;51449;51.676;5.812;2023-02-17T11:22:34;101777.41;;;13.14;74.12
59104;BME280;51449;51.676;5.812;2023-02-17T11:25:02;101766.84;;;13.16;74.27
59104;BME280;51449;51.676;5.812;2023-02-17T11:27:52;101760.81;;;13.14;73.93
59104;BME280;51449;51.676;5.812;2023-02-17T11:30:18;101761.31;;;13.16;74.41
59104;BME280;51449;51.676;5.812;2023-02-17T11:32:41;101764.38;;;13.23;74.41
59104;BME280;51449;51.676;5.812;2023-02-17T11:35:03;101760.16;;;13.26;74.24
59104;BME280;51449;51.676;5.812;2023-02-17T11:37:26;101752.03;;;13.30;74.20
59104;BME280;51449;51.676;5.812;2023-02-17T11:39:53;101767.19;;;13.32;73.94
59104;BME280;51449;51.676;5.812;2023-02-17T11:42:24;101779.53;;;13.35;74.13
59104;BME280;51449;51.676;5.812;2023-02-17T11:44:51;101787.03;;;13.34;74.04
59104;BME280;51449;51.676;5.812;2023-02-17T11:47:25;101785.56;;;13.37;73.79
59104;BME280;51449;51.676;5.812;2023-02-17T11:53:28;101782.31;;;13.35;73.92
59104;BME280;51449;51.676;5.812;2023-02-17T11:56:28;101785.56;;;13.37;73.87
59104;BME280;51449;51.676;5.812;2023-02-17T12:02:14;101780.97;;;13.41;73.90
59104;BME280;51449;51.676;5.812;2023-02-17T12:04:41;101799.06;;;13.38;74.11
59104;BME280;51449;51.676;5.812;2023-02-17T12:13:38;101779.53;;;13.35;74.21
59104;BME280;51449;51.676;5.812;2023-02-17T12:22:08;101796.78;;;13.23;74.47
59104;BME280;51449;51.676;5.812;2023-02-17T12:36:10;101804.47;;;13.17;74.96
59104;BME280;51449;51.676;5.812;2023-02-17T12:38:41;101807.72;;;13.19;74.73
59104;BME280;51449;51.676;5.812;2023-02-17T12:44:17;101817.94;;;13.19;75.18
59104;BME280;51449;51.676;5.812;2023-02-17T12:46:45;101815.53;;;13.17;75.31
59104;BME280;51449;51.676;5.812;2023-02-17T12:52:14;101793.69;;;13.24;75.23
59104;BME280;51449;51.676;5.812;2023-02-17T12:54:55;101809.47;;;13.24;74.89
59104;BME280;51449;51.676;5.812;2023-02-17T12:57:44;101808.19;;;13.21;75.36
59104;BME280;51449;51.676;5.812;2023-02-17T13:00:21;101815.66;;;13.21;75.33
59104;BME280;51449;51.676;5.812;2023-02-17T13:02:47;101814.88;;;13.20;75.22
59104;BME280;51449;51.676;5.812;2023-02-17T13:05:20;101831.16;;;13.22;75.17
59104;BME280;51449;51.676;5.812;2023-02-17T13:08:18;101840.25;;;13.22;75.36
59104;BME280;51449;51.676;5.812;2023-02-17T13:11:23;101849.22;;;13.19;75.03
59104;BME280;51449;51.676;5.812;2023-02-17T13:13:46;101850.84;;;13.20;75.46
59104;BME280;51449;51.676;5.812;2023-02-17T13:16:11;101845.78;;;13.22;75.18
59104;BME280;51449;51.676;5.812;2023-02-17T13:18:37;101844.00;;;13.18;74.89
59104;BME280;51449;51.676;5.812;2023-02-17T13:26:38;101857.66;;;13.14;75.15
59104;BME280;51449;51.676;5.812;2023-02-17T13:29:30;101881.44;;;13.15;75.27
59104;BME280;51449;51.676;5.812;2023-02-17T13:32:00;101871.84;;;13.13;75.22
59104;BME280;51449;51.676;5.812;2023-02-17T13:34:37;101879.34;;;13.12;75.42
59104;BME280;51449;51.676;5.812;2023-02-17T13:42:41;101902.28;;;13.13;75.53
59104;BME280;51449;51.676;5.812;2023-02-17T13:47:49;101884.88;;;13.12;75.43
59104;BME280;51449;51.676;5.812;2023-02-17T13:50:32;101876.88;;;13.11;75.11
59104;BME280;51449;51.676;5.812;2023-02-17T13:53:00;101898.53;;;13.09;75.25
59104;BME280;51449;51.676;5.812;2023-02-17T13:55:24;101907.16;;;13.07;75.32
59104;BME280;51449;51.676;5.812;2023-02-17T13:57:52;101903.75;;;13.10;75.06
59104;BME280;51449;51.676;5.812;2023-02-17T14:02:55;101896.75;;;13.13;75.07
59104;BME280;51449;51.676;5.812;2023-02-17T14:07:58;101910.41;;;13.09;75.88
59104;BME280;51449;51.676;5.812;2023-02-17T14:10:25;101901.63;;;13.07;76.22
59104;BME280;51449;51.676;5.812;2023-02-17T14:12:48;101919.19;;;13.02;75.94